Claude, Oregon
Current Conditions -  °F | °C
As of 8:53 PM on Wednesday 28 Jan 2015 (Local Time) from KONO Reporting Station
Clear Clear  
Wind Chill: 34°   Ceiling: Unl
Heat Index: 34°   Visibility: 8mi
Dew Point: 31°   Wind: 3mph
Humidity: 89%   Direction: 50°NE
Pressure: 30.4"   Gusts: NA
Location:  44.0817°N, 117.014°W
Report Text: KONO 290353Z AUTO 05003KT 8SM CLR 01/M01 A3040 RMK AO2 SLP315 T00111006
Loading
Personal Weather Stations






























Interactive Weather Map New forecast layout! Learn more

10-Day Weather Forecast

Advertisements
Track Severe Weather on mobile